Time;durP1;ratioP1;P1;durP2;ratioP2;P2;SDS_P1;SDS_P2;PMS_P1;PMS_P2;Temp;Humidity;BMP_temperature;BMP_pressure;BME280_temperature;BME280_humidity;BME280_pressure;Samples;Min_cycle;Max_cycle;Signal;HPM_P1;HPM_P2
2023/04/23 00:03:41;;;;;;;10.30;9.10;;;23.00;63.90;;;;;;222709;1256;22630;-53
2023/04/23 00:08:46;;;;;;;11.30;9.30;;;22.90;63.80;;;;;;222440;1256;22730;-50
2023/04/23 00:13:51;;;;;;;10.20;9.20;;;22.90;63.90;;;;;;222176;1256;25562;-53
2023/04/23 00:18:55;;;;;;;12.30;9.30;;;22.90;64.30;;;;;;222444;1256;22518;-47
2023/04/23 00:23:59;;;;;;;12.00;9.70;;;22.80;64.70;;;;;;222337;1253;25227;-48
2023/04/23 00:29:03;;;;;;;12.10;9.20;;;22.80;63.90;;;;;;222315;1260;24039;-49
2023/04/23 00:34:07;;;;;;;12.00;9.40;;;22.80;63.90;;;;;;222307;1261;24360;-47
2023/04/23 00:39:12;;;;;;;10.80;9.00;;;22.80;64.00;;;;;;222690;1260;22520;-49
2023/04/23 00:44:16;;;;;;;11.00;9.90;;;22.80;64.20;;;;;;222045;1262;23143;-46
2023/04/23 00:49:22;;;;;;;12.00;9.00;;;22.80;63.90;;;;;;222299;1260;22501;-50
2023/04/23 00:54:27;;;;;;;11.10;9.50;;;22.70;63.70;;;;;;222369;1247;22531;-47
2023/04/23 00:59:31;;;;;;;11.00;8.80;;;22.80;63.80;;;;;;222337;1259;24240;-47
2023/04/23 01:04:36;;;;;;;10.30;9.30;;;22.80;63.70;;;;;;222124;1253;22518;-46
2023/04/23 01:09:42;;;;;;;12.30;9.70;;;22.70;63.80;;;;;;222418;1261;22515;-46
2023/04/23 01:14:46;;;;;;;10.60;8.70;;;22.70;63.30;;;;;;222285;1253;24254;-50
2023/04/23 01:19:51;;;;;;;11.00;9.00;;;22.70;63.70;;;;;;222053;1253;23881;-48
2023/04/23 01:24:55;;;;;;;11.30;9.20;;;22.70;63.80;;;;;;222437;1254;22511;-50
2023/04/23 01:30:02;;;;;;;10.20;9.20;;;22.60;63.80;;;;;;222514;1257;22504;-50
2023/04/23 01:35:07;;;;;;;9.60;8.50;;;22.60;63.70;;;;;;222395;1253;25459;-47
2023/04/23 01:40:11;;;;;;;11.80;8.70;;;22.60;63.70;;;;;;222392;1263;22800;-50
2023/04/23 01:45:19;;;;;;;9.50;8.10;;;22.60;63.60;;;;;;222232;1253;23623;-46
2023/04/23 01:50:25;;;;;;;9.40;8.50;;;22.60;63.60;;;;;;222351;1263;22566;-47
2023/04/23 01:55:29;;;;;;;9.00;8.10;;;22.60;63.50;;;;;;222370;1262;22649;-49
2023/04/23 02:00:34;;;;;;;9.80;8.20;;;22.50;63.90;;;;;;222252;1253;22630;-49
2023/04/23 02:05:40;;;;;;;9.00;8.00;;;22.50;64.20;;;;;;222331;1254;22521;-55
2023/04/23 02:10:44;;;;;;;9.50;8.20;;;22.50;63.60;;;;;;222362;1253;22589;-53
2023/04/23 02:15:48;;;;;;;9.40;8.20;;;22.50;64.00;;;;;;222415;1257;22523;-52
2023/04/23 02:20:53;;;;;;;9.70;8.80;;;22.50;63.60;;;;;;222066;1259;24032;-52
2023/04/23 02:25:57;;;;;;;9.60;8.60;;;22.50;63.60;;;;;;222493;1256;22636;-53
2023/04/23 02:31:01;;;;;;;9.70;7.90;;;22.40;63.90;;;;;;222338;1253;22532;-54
2023/04/23 02:36:06;;;;;;;7.90;7.10;;;22.40;63.60;;;;;;222379;1254;22731;-52
2023/04/23 02:41:11;;;;;;;9.10;8.00;;;22.40;63.30;;;;;;222244;1253;24216;-54
2023/04/23 02:46:15;;;;;;;9.00;8.10;;;22.40;63.50;;;;;;221752;1259;25315;-51
2023/04/23 02:51:19;;;;;;;9.10;8.10;;;22.40;63.40;;;;;;222044;1247;24202;-51
2023/04/23 02:56:23;;;;;;;9.10;8.10;;;22.40;63.40;;;;;;222376;1253;23908;-55
2023/04/23 03:01:28;;;;;;;9.40;8.50;;;22.40;63.60;;;;;;222296;1262;25393;-52
2023/04/23 03:06:34;;;;;;;8.70;7.90;;;22.40;63.50;;;;;;222412;1261;24275;-52
2023/04/23 03:11:38;;;;;;;8.50;7.50;;;22.40;63.60;;;;;;222192;1263;26579;-55
2023/04/23 03:16:43;;;;;;;8.90;7.90;;;22.30;63.40;;;;;;222357;1266;22541;-54
2023/04/23 03:21:48;;;;;;;8.50;7.70;;;22.30;63.80;;;;;;222183;1260;25440;-52
2023/04/23 03:26:52;;;;;;;8.10;7.30;;;22.30;63.50;;;;;;222307;1263;22639;-53
2023/04/23 03:31:56;;;;;;;9.00;8.10;;;22.30;63.60;;;;;;222350;1263;22501;-54
2023/04/23 03:37:00;;;;;;;9.60;8.40;;;22.20;63.50;;;;;;222136;1266;22680;-54
2023/04/23 03:42:07;;;;;;;8.70;7.70;;;22.30;63.60;;;;;;222115;1257;23872;-53
2023/04/23 03:47:12;;;;;;;9.30;8.30;;;22.30;63.60;;;;;;222375;1256;22504;-51
2023/04/23 03:52:16;;;;;;;8.80;7.90;;;22.20;63.60;;;;;;222329;1246;22757;-51
2023/04/23 03:57:21;;;;;;;7.70;7.00;;;22.20;63.50;;;;;;222313;1254;24324;-51
2023/04/23 04:02:54;;;;;;;8.90;8.00;;;22.20;63.50;;;;;;222310;1263;22519;-55
2023/04/23 04:08:01;;;;;;;8.90;7.40;;;22.20;63.40;;;;;;222258;1263;25265;-56
2023/04/23 04:13:05;;;;;;;8.80;7.40;;;22.20;63.50;;;;;;222231;1253;25201;-48
2023/04/23 04:18:10;;;;;;;8.50;7.70;;;22.20;63.50;;;;;;221980;1263;22562;-51
2023/04/23 04:23:14;;;;;;;8.90;7.60;;;22.10;63.40;;;;;;222184;1263;22641;-52
2023/04/23 04:28:18;;;;;;;8.50;7.70;;;22.10;63.50;;;;;;222214;1256;24231;-55
2023/04/23 04:33:24;;;;;;;8.80;7.90;;;22.10;63.60;;;;;;222199;1256;24233;-52
2023/04/23 04:38:28;;;;;;;8.20;7.40;;;22.10;63.60;;;;;;222199;1263;22627;-50
2023/04/23 04:43:33;;;;;;;9.20;8.30;;;22.10;63.70;;;;;;222226;1263;22592;-52
2023/04/23 04:48:38;;;;;;;8.70;7.80;;;22.10;63.90;;;;;;222318;1260;25569;-54
2023/04/23 04:53:41;;;;;;;8.40;7.50;;;22.10;63.80;;;;;;222187;1266;24194;-52
2023/04/23 04:58:46;;;;;;;8.60;7.80;;;22.10;63.70;;;;;;222150;1264;22508;-51
2023/04/23 05:03:50;;;;;;;9.40;8.50;;;22.00;63.70;;;;;;222110;1263;22550;-54
2023/04/23 05:08:54;;;;;;;8.30;7.30;;;22.00;63.70;;;;;;222170;1263;22629;-56
2023/04/23 05:13:58;;;;;;;8.10;7.30;;;22.00;63.60;;;;;;222261;1265;22511;-56
2023/04/23 05:19:02;;;;;;;8.50;7.70;;;22.00;63.40;;;;;;222227;1268;22562;-52
2023/04/23 05:24:07;;;;;;;9.20;7.70;;;22.10;62.90;;;;;;222086;1259;22696;-52
2023/04/23 05:29:13;;;;;;;8.20;7.40;;;22.10;63.60;;;;;;222219;1254;23885;-52
2023/04/23 05:34:16;;;;;;;8.50;7.70;;;22.00;63.40;;;;;;222353;1263;22764;-53
2023/04/23 05:39:21;;;;;;;8.10;7.20;;;22.00;63.20;;;;;;222293;1256;22596;-51
2023/04/23 05:44:25;;;;;;;9.10;7.60;;;22.00;63.30;;;;;;222514;1263;23191;-50
2023/04/23 05:49:29;;;;;;;8.10;7.40;;;22.00;63.80;;;;;;222326;1266;22725;-51
2023/04/23 05:54:33;;;;;;;8.20;7.30;;;22.00;63.60;;;;;;222110;1259;25579;-55
2023/04/23 05:59:39;;;;;;;7.90;7.10;;;22.00;63.30;;;;;;222279;1253;22524;-55
2023/04/23 06:04:43;;;;;;;8.00;7.30;;;22.00;63.20;;;;;;222217;1268;22870;-54
2023/04/23 06:09:48;;;;;;;7.40;6.70;;;22.00;63.70;;;;;;222243;1253;22517;-54
2023/04/23 06:14:54;;;;;;;8.10;7.30;;;22.00;63.60;;;;;;222184;1266;25325;-54
2023/04/23 06:19:58;;;;;;;8.00;7.20;;;22.00;63.50;;;;;;222297;1259;22618;-53
2023/04/23 06:25:02;;;;;;;8.50;7.50;;;22.00;64.00;;;;;;221831;1254;283176;-52
2023/04/23 06:30:07;;;;;;;9.50;7.80;;;22.00;63.40;;;;;;222477;1261;22568;-52
2023/04/23 06:35:12;;;;;;;9.00;7.40;;;22.00;63.40;;;;;;222267;1263;24177;-53
2023/04/23 06:40:16;;;;;;;8.30;7.20;;;22.00;63.40;;;;;;222298;1267;22507;-53
2023/04/23 06:45:20;;;;;;;6.60;6.10;;;22.00;63.30;;;;;;222121;1266;22512;-53
2023/04/23 06:50:25;;;;;;;11.50;7.20;;;22.10;62.90;;;;;;222329;1260;22969;-50
2023/04/23 06:55:29;;;;;;;7.80;7.00;;;22.10;63.40;;;;;;222265;1262;24192;-55
2023/04/23 07:00:33;;;;;;;7.60;6.90;;;22.10;62.80;;;;;;222388;1264;22508;-56
2023/04/23 07:05:38;;;;;;;7.30;6.50;;;22.20;62.80;;;;;;222473;1254;22590;-52
2023/04/23 07:10:42;;;;;;;8.60;7.50;;;22.20;62.70;;;;;;222164;1263;23876;-52
2023/04/23 07:15:47;;;;;;;7.40;6.70;;;22.30;62.60;;;;;;222428;1266;22682;-52
2023/04/23 07:20:51;;;;;;;7.50;6.50;;;22.30;62.50;;;;;;222105;1266;22610;-53
2023/04/23 07:25:55;;;;;;;10.70;7.00;;;22.30;62.90;;;;;;222212;1263;23523;-53
2023/04/23 07:31:01;;;;;;;7.30;6.60;;;22.30;63.20;;;;;;222272;1263;22623;-53
2023/04/23 07:36:05;;;;;;;7.20;6.40;;;22.30;62.60;;;;;;222298;1263;24250;-52
2023/04/23 07:41:08;;;;;;;6.80;6.10;;;22.40;62.60;;;;;;222241;1264;25293;-53
2023/04/23 07:46:13;;;;;;;10.80;6.20;;;22.30;63.00;;;;;;222421;1248;26502;-54
2023/04/23 07:51:17;;;;;;;9.00;6.60;;;22.30;63.00;;;;;;222096;1262;22640;-54
2023/04/23 07:56:23;;;;;;;13.20;6.90;;;22.30;63.20;;;;;;222212;1261;24187;-52
2023/04/23 08:01:27;;;;;;;8.50;6.40;;;22.20;63.50;;;;;;221943;1266;25762;-56
2023/04/23 08:06:34;;;;;;;8.90;7.30;;;22.20;63.60;;;;;;222352;1263;25218;-51
2023/04/23 08:11:38;;;;;;;9.50;6.40;;;22.20;63.60;;;;;;221964;1252;23944;-53
2023/04/23 08:16:43;;;;;;;9.90;7.20;;;22.20;63.30;;;;;;221968;1259;22573;-52
2023/04/23 08:21:48;;;;;;;10.00;6.50;;;22.20;63.60;;;;;;222075;1257;22511;-52
2023/04/23 08:26:52;;;;;;;21.30;6.60;;;22.30;63.20;;;;;;222247;1263;23917;-52
2023/04/23 08:31:56;;;;;;;12.90;7.00;;;22.30;63.90;;;;;;222052;1265;22547;-52
2023/04/23 08:37:00;;;;;;;8.10;6.20;;;22.50;65.50;;;;;;222415;1259;22636;-53
2023/04/23 08:42:12;;;;;;;17.00;6.20;;;22.50;64.30;;;;;;222058;1250;22586;-54
2023/04/23 08:47:17;;;;;;;8.20;5.80;;;22.50;64.00;;;;;;222102;1266;22515;-54
2023/04/23 08:52:23;;;;;;;16.30;6.00;;;22.60;63.70;;;;;;222230;1263;24174;-53
2023/04/23 08:57:30;;;;;;;9.40;5.90;;;22.60;64.40;;;;;;222259;1263;22498;-54
2023/04/23 09:02:42;;;;;;;14.10;6.50;;;22.60;65.00;;;;;;222292;1254;24346;-52
2023/04/23 09:07:46;;;;;;;9.30;5.70;;;22.70;65.00;;;;;;222302;1266;22522;-49
2023/04/23 09:12:51;;;;;;;7.50;6.00;;;22.80;64.70;;;;;;222087;1263;22504;-52
2023/04/23 09:17:55;;;;;;;8.40;5.90;;;22.80;64.40;;;;;;222130;1269;25473;-52
2023/04/23 09:23:05;;;;;;;15.00;6.20;;;22.70;64.10;;;;;;222342;1263;23816;-56
2023/04/23 09:28:09;;;;;;;11.70;6.00;;;22.70;64.20;;;;;;222288;1268;22526;-57
2023/04/23 09:33:16;;;;;;;6.90;5.80;;;22.80;64.00;;;;;;222451;1266;22512;-54
2023/04/23 09:38:20;;;;;;;8.20;5.50;;;22.80;63.80;;;;;;222409;1266;22594;-48
2023/04/23 09:43:29;;;;;;;7.50;5.60;;;22.90;63.50;;;;;;222029;1264;25324;-48
2023/04/23 09:48:41;;;;;;;8.50;4.60;;;23.10;62.30;;;;;;222287;1257;22522;-50
2023/04/23 09:53:46;;;;;;;5.80;4.40;;;23.00;57.20;;;;;;222342;1266;22508;-49
2023/04/23 09:58:49;;;;;;;8.80;5.20;;;23.00;55.60;;;;;;222219;1259;22538;-50
2023/04/23 10:03:55;;;;;;;10.60;4.80;;;23.00;54.60;;;;;;221882;1254;25366;-53
2023/04/23 10:08:59;;;;;;;6.90;4.40;;;23.00;52.80;;;;;;221910;1260;22513;-49
2023/04/23 10:14:04;;;;;;;5.20;4.30;;;23.00;52.30;;;;;;221668;1254;24183;-48
2023/04/23 10:19:13;;;;;;;5.00;4.00;;;23.00;50.60;;;;;;222128;1264;22507;-49
2023/04/23 10:24:20;;;;;;;5.20;4.20;;;23.00;49.50;;;;;;222123;1263;22837;-49
2023/04/23 10:29:28;;;;;;;5.70;4.10;;;23.00;48.60;;;;;;222149;1264;22515;-49
2023/04/23 10:34:32;;;;;;;7.10;4.20;;;22.90;48.90;;;;;;229955;1263;22238;-50
2023/04/23 10:39:37;;;;;;;5.10;4.60;;;22.90;48.70;;;;;;224883;1263;25259;-49
2023/04/23 10:44:42;;;;;;;7.30;4.60;;;23.00;48.70;;;;;;220755;1269;25718;-48
2023/04/23 10:49:50;;;;;;;5.60;4.30;;;23.00;50.50;;;;;;220594;1263;25677;-49
2023/04/23 10:55:00;;;;;;;7.30;4.20;;;23.00;51.80;;;;;;220508;1275;22535;-50
2023/04/23 11:00:05;;;;;;;5.70;3.90;;;23.10;52.00;;;;;;220891;1263;24204;-46
2023/04/23 11:05:09;;;;;;;6.70;4.30;;;23.20;52.80;;;;;;222330;1267;23908;-55
2023/04/23 11:10:14;;;;;;;11.10;4.50;;;23.10;54.10;;;;;;222474;1266;22513;-54
2023/04/23 11:15:18;;;;;;;11.50;4.50;;;23.10;54.10;;;;;;222453;1263;23873;-50
2023/04/23 11:20:23;;;;;;;9.20;4.10;;;23.20;55.50;;;;;;222166;1260;22498;-52
2023/04/23 11:25:29;;;;;;;12.40;4.40;;;23.30;55.00;;;;;;222389;1266;22603;-53
2023/04/23 11:30:33;;;;;;;6.80;4.40;;;23.30;54.90;;;;;;222461;1260;22947;-51
2023/04/23 11:35:40;;;;;;;4.90;3.90;;;23.30;55.10;;;;;;230291;1263;22153;-52
2023/04/23 11:40:47;;;;;;;6.30;3.90;;;23.40;54.80;;;;;;227746;1265;22525;-55
2023/04/23 11:45:51;;;;;;;7.90;3.50;;;23.60;54.80;;;;;;222336;1261;22518;-50
2023/04/23 11:50:55;;;;;;;7.40;4.20;;;23.50;54.30;;;;;;222198;1265;22512;-53
2023/04/23 11:55:59;;;;;;;9.60;4.20;;;23.40;55.00;;;;;;222242;1264;22514;-54
2023/04/23 12:01:03;;;;;;;4.20;3.80;;;23.30;55.30;;;;;;221990;1263;22518;-52
2023/04/23 12:06:07;;;;;;;6.80;4.20;;;23.30;55.40;;;;;;222365;1263;22505;-56
2023/04/23 12:11:11;;;;;;;4.70;4.10;;;23.30;55.50;;;;;;222242;1266;25331;-53
2023/04/23 12:16:15;;;;;;;5.20;3.60;;;23.20;55.60;;;;;;222153;1269;22560;-53
2023/04/23 12:21:20;;;;;;;6.10;3.90;;;23.30;55.60;;;;;;222306;1260;22616;-54
2023/04/23 12:26:26;;;;;;;4.30;3.90;;;23.30;55.80;;;;;;222374;1266;22611;-53
2023/04/23 12:31:30;;;;;;;4.50;3.90;;;23.30;55.80;;;;;;222064;1269;22514;-55
2023/04/23 12:36:39;;;;;;;4.10;3.70;;;23.30;56.20;;;;;;222563;1260;25464;-52
2023/04/23 12:41:43;;;;;;;4.30;3.80;;;23.20;56.50;;;;;;222683;1266;22526;-54
2023/04/23 12:46:58;;;;;;;4.10;3.70;;;23.30;56.00;;;;;;222691;1265;22522;-54
2023/04/23 12:52:03;;;;;;;4.40;3.90;;;23.30;55.70;;;;;;222304;1269;22573;-51
2023/04/23 12:57:11;;;;;;;7.60;3.70;;;23.30;55.50;;;;;;222455;1266;22515;-56
2023/04/23 13:02:15;;;;;;;4.10;3.70;;;23.40;56.10;;;;;;222469;1266;24230;-49
2023/04/23 13:07:20;;;;;;;4.10;3.70;;;23.40;55.50;;;;;;222272;1263;22655;-54
2023/04/23 13:12:24;;;;;;;4.40;4.00;;;23.40;55.70;;;;;;222351;1269;22605;-53
2023/04/23 13:17:29;;;;;;;4.10;3.50;;;23.30;55.70;;;;;;222326;1262;24210;-56
2023/04/23 13:22:33;;;;;;;3.20;3.00;;;23.20;55.80;;;;;;222258;1269;22535;-55
2023/04/23 13:27:39;;;;;;;3.80;3.60;;;23.20;55.90;;;;;;222261;1256;24176;-52
2023/04/23 13:32:43;;;;;;;3.60;3.30;;;23.20;55.90;;;;;;222315;1263;25346;-53
2023/04/23 13:37:47;;;;;;;9.40;4.20;;;23.20;56.40;;;;;;222442;1263;25437;-54
2023/04/23 13:42:53;;;;;;;5.30;4.40;;;23.10;56.70;;;;;;222366;1263;22600;-53
2023/04/23 13:48:01;;;;;;;6.40;3.80;;;23.10;57.50;;;;;;222170;1264;22785;-54
2023/04/23 13:53:09;;;;;;;5.00;3.50;;;23.10;57.60;;;;;;222370;1257;24422;-52
2023/04/23 13:58:13;;;;;;;5.80;3.90;;;23.30;57.50;;;;;;222477;1263;22534;-53
2023/04/23 14:03:18;;;;;;;6.90;3.70;;;23.30;57.70;;;;;;222275;1264;23921;-54
2023/04/23 14:08:23;;;;;;;6.00;3.50;;;23.30;57.70;;;;;;222519;1267;26129;-51
2023/04/23 14:13:27;;;;;;;3.90;3.50;;;23.30;58.50;;;;;;222186;1266;22518;-50
2023/04/23 14:18:31;;;;;;;5.20;3.40;;;23.30;58.30;;;;;;222190;1255;24177;-53
2023/04/23 14:23:43;;;;;;;5.10;3.10;;;23.30;59.00;;;;;;222386;1264;22960;-53
2023/04/23 14:28:50;;;;;;;6.30;3.20;;;23.30;58.50;;;;;;221331;1268;24192;-55
2023/04/23 14:33:57;;;;;;;3.30;3.00;;;23.30;58.60;;;;;;221213;1267;26539;-52
2023/04/23 14:39:04;;;;;;;7.50;3.50;;;23.30;58.40;;;;;;220832;1267;23145;-52
2023/04/23 14:44:08;;;;;;;6.20;3.40;;;23.30;58.80;;;;;;221103;1267;22523;-50
2023/04/23 14:49:13;;;;;;;6.70;3.20;;;23.40;59.20;;;;;;221317;1266;22573;-52
2023/04/23 14:54:17;;;;;;;13.70;3.50;;;23.30;58.90;;;;;;222014;1264;22527;-54
2023/04/23 14:59:22;;;;;;;8.80;3.50;;;23.40;58.80;;;;;;222195;1261;22623;-52
2023/04/23 15:04:26;;;;;;;10.80;3.60;;;23.40;58.50;;;;;;222481;1264;22518;-53
2023/04/23 15:09:31;;;;;;;3.60;2.90;;;23.50;58.90;;;;;;222040;1254;25411;-48
2023/04/23 15:14:37;;;;;;;6.40;3.00;;;23.40;58.70;;;;;;222141;1264;23511;-50
2023/04/23 15:19:41;;;;;;;7.90;3.20;;;23.30;59.50;;;;;;222283;1264;24355;-47
2023/04/23 15:24:46;;;;;;;4.30;3.30;;;23.40;60.10;;;;;;222241;1264;22518;-49
2023/04/23 15:29:50;;;;;;;4.20;3.10;;;23.40;59.60;;;;;;222092;1261;24183;-51
2023/04/23 15:34:54;;;;;;;8.40;3.40;;;23.40;59.30;;;;;;222515;1264;25354;-45
2023/04/23 15:39:58;;;;;;;3.70;3.20;;;23.40;61.00;;;;;;222193;1255;22701;-48
2023/04/23 15:45:05;;;;;;;6.50;3.70;;;23.50;61.20;;;;;;222346;1260;22672;-52
2023/04/23 15:50:11;;;;;;;4.00;3.50;;;23.60;61.60;;;;;;222300;1258;22512;-51
2023/04/23 15:55:18;;;;;;;4.90;3.70;;;23.60;61.20;;;;;;222360;1256;22504;-48
2023/04/23 16:00:22;;;;;;;5.60;4.00;;;23.60;63.30;;;;;;221986;1258;23925;-51
2023/04/23 16:05:28;;;;;;;5.60;5.10;;;23.60;64.30;;;;;;222097;1257;24225;-50
2023/04/23 16:10:33;;;;;;;5.90;4.90;;;23.60;64.60;;;;;;222205;1258;22663;-48
2023/04/23 16:15:37;;;;;;;4.80;4.00;;;23.60;63.60;;;;;;222371;1257;23876;-48
2023/04/23 16:20:42;;;;;;;7.00;4.20;;;23.60;62.80;;;;;;222458;1261;22563;-49
2023/04/23 16:25:47;;;;;;;5.80;4.10;;;23.70;62.40;;;;;;222162;1265;22612;-47
2023/04/23 16:30:52;;;;;;;7.40;4.20;;;23.70;62.30;;;;;;222394;1255;25456;-48
2023/04/23 16:35:58;;;;;;;11.70;4.80;;;23.60;62.10;;;;;;222185;1262;25261;-49
2023/04/23 16:41:03;;;;;;;7.50;3.60;;;23.50;63.40;;;;;;222244;1263;24052;-61
2023/04/23 16:46:09;;;;;;;13.90;4.60;;;23.40;63.50;;;;;;222442;1267;22530;-52
2023/04/23 16:51:14;;;;;;;7.80;4.00;;;23.50;63.40;;;;;;222273;1263;22632;-55
2023/04/23 16:56:20;;;;;;;9.90;3.70;;;23.50;63.20;;;;;;222187;1258;22521;-58
2023/04/23 17:01:26;;;;;;;11.80;4.70;;;23.40;63.70;;;;;;222341;1255;25520;-58
2023/04/23 17:06:37;;;;;;;6.20;3.80;;;23.50;63.00;;;;;;222370;1253;24039;-49
2023/04/23 17:11:43;;;;;;;13.10;4.20;;;23.40;62.70;;;;;;222153;1263;25377;-55
2023/04/23 17:16:49;;;;;;;11.90;3.80;;;23.50;62.50;;;;;;222218;1263;22527;-56
2023/04/23 17:21:54;;;;;;;5.50;3.90;;;23.50;62.70;;;;;;222311;1254;22513;-49
2023/04/23 17:27:00;;;;;;;6.20;3.60;;;23.40;62.60;;;;;;222591;1262;25265;-49
2023/04/23 17:32:05;;;;;;;4.90;3.40;;;23.40;62.60;;;;;;222526;1254;23943;-54
2023/04/23 17:37:12;;;;;;;5.90;3.60;;;23.40;62.60;;;;;;222057;1263;25339;-55
2023/04/23 17:42:17;;;;;;;5.20;4.20;;;23.30;62.60;;;;;;222546;1263;24180;-49
2023/04/23 17:47:24;;;;;;;11.30;5.60;;;23.30;62.60;;;;;;222488;1253;24435;-56
2023/04/23 17:52:29;;;;;;;11.20;4.60;;;23.40;64.90;;;;;;222373;1260;22512;-56
2023/04/23 17:57:36;;;;;;;10.00;4.30;;;23.50;65.20;;;;;;222311;1266;22634;-59
2023/04/23 18:02:46;;;;;;;9.80;4.80;;;23.50;64.30;;;;;;222211;1256;22620;-55
2023/04/23 18:07:51;;;;;;;9.80;4.90;;;23.40;64.20;;;;;;222353;1254;22512;-57
2023/04/23 18:12:56;;;;;;;8.20;4.80;;;23.30;63.80;;;;;;222314;1253;22660;-56
2023/04/23 18:18:00;;;;;;;8.60;4.60;;;23.30;63.60;;;;;;222116;1263;24376;-52
2023/04/23 18:23:06;;;;;;;10.80;4.70;;;23.40;63.70;;;;;;222594;1248;23457;-55
2023/04/23 18:28:14;;;;;;;10.50;5.80;;;23.30;63.40;;;;;;222162;1262;166220;-56
2023/04/23 18:33:51;;;;;;;17.20;9.10;;;23.40;64.10;;;;;;222134;1263;22517;-51
2023/04/23 18:39:03;;;;;;;10.30;6.70;;;23.40;65.30;;;;;;222592;1254;22516;-57
2023/04/23 18:44:11;;;;;;;16.80;7.20;;;23.50;64.90;;;;;;224140;1263;22546;-48
2023/04/23 18:49:45;;;;;;;10.30;7.00;;;23.50;64.30;;;;;;222374;1253;25421;-49
2023/04/23 18:55:01;;;;;;;12.40;6.70;;;23.60;64.10;;;;;;230289;1263;22292;-52
2023/04/23 19:00:12;;;;;;;11.90;6.60;;;23.90;63.30;;;;;;230168;1268;22140;-54
2023/04/23 19:05:18;;;;;;;8.90;6.30;;;24.30;61.90;;;;;;230230;1262;22247;-52
2023/04/23 19:10:23;;;;;;;11.20;5.90;;;24.40;61.10;;;;;;230072;1251;23192;-52
2023/04/23 19:15:33;;;;;;;9.30;5.50;;;24.50;60.60;;;;;;225781;1247;24370;-55
2023/04/23 19:20:38;;;;;;;8.30;5.00;;;24.20;61.20;;;;;;227447;1256;22524;-52
2023/04/23 19:25:43;;;;;;;8.90;5.40;;;23.90;62.20;;;;;;222342;1263;22518;-53
2023/04/23 19:30:48;;;;;;;11.80;5.20;;;23.90;62.00;;;;;;222370;1262;25396;-51
2023/04/23 19:35:54;;;;;;;12.30;5.40;;;23.70;62.80;;;;;;222281;1264;22515;-52
2023/04/23 19:40:59;;;;;;;16.00;4.90;;;23.50;63.40;;;;;;222291;1253;22623;-52
2023/04/23 19:46:05;;;;;;;9.60;5.10;;;23.50;63.40;;;;;;222329;1263;22627;-55
2023/04/23 19:51:10;;;;;;;8.50;4.70;;;23.50;63.50;;;;;;222340;1253;23478;-52
2023/04/23 19:56:17;;;;;;;8.00;4.90;;;23.40;63.40;;;;;;222017;1267;22530;-51
2023/04/23 20:01:24;;;;;;;11.20;5.00;;;23.50;63.20;;;;;;222332;1263;22642;-50
2023/04/23 20:06:29;;;;;;;9.40;5.40;;;23.50;63.10;;;;;;222151;1263;24219;-52
2023/04/23 20:11:34;;;;;;;12.80;5.90;;;23.50;63.00;;;;;;222249;1263;22524;-49
2023/04/23 20:16:43;;;;;;;12.10;5.20;;;23.50;63.20;;;;;;222311;1256;22523;-46
2023/04/23 20:21:47;;;;;;;9.20;5.10;;;23.50;63.10;;;;;;222238;1262;22519;-48
2023/04/23 20:26:52;;;;;;;6.10;4.50;;;23.50;62.70;;;;;;222064;1254;25389;-45
2023/04/23 20:31:58;;;;;;;10.30;5.10;;;23.40;62.70;;;;;;222458;1260;24225;-47
2023/04/23 20:37:05;;;;;;;8.80;4.90;;;23.30;62.90;;;;;;222343;1263;23883;-47
2023/04/23 20:42:10;;;;;;;7.60;5.20;;;23.40;62.80;;;;;;222106;1262;24192;-45
2023/04/23 20:47:15;;;;;;;5.70;4.80;;;23.30;62.70;;;;;;222023;1250;24060;-48
2023/04/23 20:52:19;;;;;;;6.00;4.50;;;23.30;62.70;;;;;;222413;1263;22623;-45
2023/04/23 20:57:23;;;;;;;6.30;5.00;;;23.30;62.50;;;;;;222378;1259;22511;-51
2023/04/23 21:02:27;;;;;;;8.10;5.10;;;23.30;62.40;;;;;;222298;1257;22541;-46
2023/04/23 21:07:31;;;;;;;13.80;5.70;;;23.30;68.10;;;;;;222386;1254;22517;-50
2023/04/23 21:12:36;;;;;;;7.90;5.30;;;23.40;66.40;;;;;;222384;1263;22561;-48
2023/04/23 21:17:43;;;;;;;12.80;5.10;;;23.40;66.30;;;;;;222533;1263;22508;-49
2023/04/23 21:22:47;;;;;;;9.20;5.60;;;23.30;65.70;;;;;;222290;1259;22511;-47
2023/04/23 21:27:52;;;;;;;8.90;5.40;;;23.30;66.30;;;;;;222312;1256;24046;-47
2023/04/23 21:32:55;;;;;;;6.70;4.80;;;23.40;67.70;;;;;;222616;1253;24238;-46
2023/04/23 21:38:00;;;;;;;8.30;4.50;;;23.40;67.60;;;;;;222118;1253;22623;-49
2023/04/23 21:43:05;;;;;;;9.70;4.70;;;23.40;67.70;;;;;;222442;1256;24372;-45
2023/04/23 21:48:09;;;;;;;8.60;4.70;;;23.40;67.60;;;;;;222482;1257;23908;-46
2023/04/23 21:53:13;;;;;;;10.10;4.60;;;23.40;68.10;;;;;;222363;1259;22544;-49
2023/04/23 21:58:18;;;;;;;6.30;4.70;;;23.30;68.10;;;;;;222181;1253;25469;-48
2023/04/23 22:03:23;;;;;;;5.70;4.70;;;23.30;67.80;;;;;;222350;1254;24305;-48
2023/04/23 22:08:43;;;;;;;8.20;4.90;;;23.30;68.10;;;;;;222401;1254;25857;-46
2023/04/23 22:13:47;;;;;;;8.20;4.70;;;23.30;67.50;;;;;;222474;1263;22518;-45
2023/04/23 22:18:52;;;;;;;9.00;4.80;;;23.30;67.10;;;;;;222130;1253;22508;-47
2023/04/23 22:23:56;;;;;;;12.40;5.60;;;23.30;67.10;;;;;;222435;1254;24180;-46
2023/04/23 22:29:01;;;;;;;8.90;4.90;;;23.30;67.40;;;;;;222228;1260;24233;-49
2023/04/23 22:34:05;;;;;;;7.90;4.40;;;23.30;66.90;;;;;;222355;1260;22507;-48
2023/04/23 22:39:09;;;;;;;6.70;4.10;;;23.30;67.00;;;;;;222248;1248;24199;-46
2023/04/23 22:44:13;;;;;;;6.30;4.30;;;23.30;66.70;;;;;;222218;1260;22646;-51
2023/04/23 22:49:17;;;;;;;6.80;4.80;;;23.40;66.80;;;;;;222118;1260;24368;-47
2023/04/23 22:54:22;;;;;;;5.80;4.30;;;23.40;66.40;;;;;;222461;1260;24250;-47
2023/04/23 22:59:26;;;;;;;7.00;4.50;;;23.30;66.30;;;;;;222274;1266;22518;-46
2023/04/23 23:04:30;;;;;;;24.90;6.40;;;23.30;67.40;;;;;;222533;1260;22504;-52
2023/04/23 23:09:34;;;;;;;6.30;4.50;;;23.20;67.10;;;;;;222428;1261;22651;-46
2023/04/23 23:14:38;;;;;;;9.40;4.80;;;23.30;66.60;;;;;;222396;1260;23876;-45
2023/04/23 23:19:42;;;;;;;5.40;4.30;;;23.20;66.60;;;;;;222342;1254;26390;-49
2023/04/23 23:24:47;;;;;;;9.30;4.60;;;23.30;66.40;;;;;;222120;1254;22517;-45
2023/04/23 23:29:50;;;;;;;6.10;4.40;;;23.30;66.20;;;;;;222160;1254;22633;-46
2023/04/23 23:34:55;;;;;;;4.80;4.10;;;23.30;66.00;;;;;;222359;1253;22511;-46
2023/04/23 23:39:59;;;;;;;4.90;4.00;;;23.40;66.00;;;;;;222256;1260;22560;-49
2023/04/23 23:45:05;;;;;;;5.40;4.30;;;23.50;66.10;;;;;;222089;1260;22523;-47
2023/04/23 23:50:10;;;;;;;4.70;3.90;;;23.60;65.10;;;;;;222325;1263;25380;-47
2023/04/23 23:55:14;;;;;;;5.50;4.00;;;23.70;64.90;;;;;;222462;1254;24211;-50
